createdAt,value
2023-05-05T00:01:08.348Z,4.03
2023-05-05T00:03:37.835Z,3.92
2023-05-05T00:06:05.434Z,4.25
2023-05-05T00:08:32.169Z,4.87
2023-05-05T00:10:58.712Z,3.95
2023-05-05T00:13:25.313Z,3.28
2023-05-05T00:15:53.496Z,3.13
2023-05-05T00:18:20.417Z,3.42
2023-05-05T00:20:47.512Z,4.03
2023-05-05T00:23:14.631Z,3.88
2023-05-05T00:25:41.194Z,3.97
2023-05-05T00:28:07.647Z,3.80
2023-05-05T00:30:34.643Z,4.45
2023-05-05T00:33:01.837Z,3.03
2023-05-05T00:35:28.635Z,4.03
2023-05-05T00:37:55.273Z,4.20
2023-05-05T00:40:21.979Z,4.28
2023-05-05T00:42:50.853Z,4.43
2023-05-05T00:45:17.800Z,4.13
2023-05-05T00:48:04.713Z,4.20
2023-05-05T00:50:31.396Z,4.55
2023-05-05T00:53:00.101Z,4.05
2023-05-05T00:55:26.627Z,5.78
2023-05-05T00:57:53.468Z,5.10
2023-05-05T01:00:19.913Z,5.07
2023-05-05T01:02:46.562Z,4.80
2023-05-05T01:05:14.324Z,5.50
2023-05-05T01:07:40.687Z,4.75
2023-05-05T01:10:20.151Z,5.07
2023-05-05T01:13:06.255Z,4.15
2023-05-05T01:15:51.642Z,5.57
2023-05-05T01:18:41.137Z,4.68
2023-05-05T01:21:23.652Z,6.07
2023-05-05T01:24:02.506Z,4.33
2023-05-05T01:26:44.182Z,4.72
2023-05-05T01:29:23.026Z,4.85
2023-05-05T01:31:57.571Z,4.85
2023-05-05T01:34:38.982Z,4.95
2023-05-05T01:37:11.405Z,4.33
2023-05-05T01:39:38.816Z,4.70
2023-05-05T01:42:08.217Z,5.00
2023-05-05T01:44:36.547Z,5.25
2023-05-05T01:47:03.413Z,4.97
2023-05-05T01:49:30.470Z,5.33
2023-05-05T01:51:57.775Z,5.45
2023-05-05T01:54:24.704Z,5.28
2023-05-05T01:56:53.172Z,5.35
2023-05-05T01:59:20.403Z,5.55
2023-05-05T02:01:48.699Z,6.27
2023-05-05T02:04:15.371Z,4.82
2023-05-05T02:06:43.038Z,5.20
2023-05-05T02:09:11.881Z,5.55
2023-05-05T02:11:38.392Z,5.85
2023-05-05T02:14:05.610Z,5.60
2023-05-05T02:16:33.253Z,5.47
2023-05-05T02:19:02.291Z,5.95
2023-05-05T02:21:28.865Z,6.28
2023-05-05T02:23:55.733Z,6.32
2023-05-05T02:26:22.572Z,6.23
2023-05-05T02:28:49.061Z,5.82
2023-05-05T02:31:16.503Z,6.70
2023-05-05T02:33:44.511Z,6.43
2023-05-05T02:36:19.607Z,7.03
2023-05-05T02:38:47.337Z,6.00
2023-05-05T02:41:16.942Z,6.13
2023-05-05T02:43:43.673Z,6.38
2023-05-05T02:46:10.253Z,6.82
2023-05-05T02:48:36.753Z,6.68
2023-05-05T02:51:03.174Z,6.90
2023-05-05T02:53:29.650Z,8.43
2023-05-05T02:56:06.094Z,7.80
2023-05-05T02:58:40.816Z,6.95
2023-05-05T03:01:13.274Z,7.03
2023-05-05T03:03:40.969Z,7.40
2023-05-05T03:06:11.646Z,7.50
2023-05-05T03:08:44.010Z,6.97
2023-05-05T03:11:30.665Z,7.50
2023-05-05T03:14:01.469Z,7.00
2023-05-05T03:16:28.114Z,7.35
2023-05-05T03:18:55.566Z,7.28
2023-05-05T03:21:22.008Z,8.57
2023-05-05T03:23:48.413Z,7.68
2023-05-05T03:26:16.886Z,7.47
2023-05-05T03:28:43.315Z,6.47
2023-05-05T03:31:09.868Z,6.85
2023-05-05T03:33:36.279Z,6.30
2023-05-05T03:36:02.740Z,7.28
2023-05-05T03:38:29.280Z,6.37
2023-05-05T03:40:56.237Z,6.00
2023-05-05T03:43:22.791Z,7.15
2023-05-05T03:45:50.617Z,7.13
2023-05-05T03:48:17.153Z,7.53
2023-05-05T03:50:44.889Z,8.03
2023-05-05T03:53:11.470Z,7.85
2023-05-05T03:55:37.890Z,7.65
2023-05-05T03:58:04.305Z,8.90
2023-05-05T04:00:31.109Z,8.05
2023-05-05T04:02:57.675Z,7.67
2023-05-05T04:05:24.163Z,8.05
2023-05-05T04:07:50.557Z,9.20
2023-05-05T04:10:17.227Z,8.43
2023-05-05T04:12:43.727Z,9.27
2023-05-05T04:15:10.319Z,8.33
2023-05-05T04:17:36.698Z,8.93
2023-05-05T04:20:03.353Z,9.93
2023-05-05T04:22:29.898Z,10.02
2023-05-05T04:24:56.404Z,9.95
2023-05-05T04:27:22.799Z,9.47
2023-05-05T04:29:49.195Z,10.13
2023-05-05T04:32:15.816Z,9.35
2023-05-05T04:34:42.360Z,9.55
2023-05-05T04:37:08.893Z,9.70
2023-05-05T04:39:35.450Z,10.47
2023-05-05T04:42:02.405Z,9.30
2023-05-05T04:44:28.858Z,9.90
2023-05-05T04:46:55.385Z,10.05
2023-05-05T04:49:21.870Z,11.23
2023-05-05T04:51:48.289Z,12.00
2023-05-05T04:54:14.859Z,11.23
2023-05-05T04:56:41.297Z,8.88
2023-05-05T04:59:07.736Z,10.07
2023-05-05T05:01:35.254Z,10.25
2023-05-05T05:04:03.440Z,9.70
2023-05-05T05:06:29.833Z,10.75
2023-05-05T05:08:56.236Z,11.55
2023-05-05T05:11:23.077Z,11.18
2023-05-05T05:13:49.582Z,10.93
2023-05-05T05:16:16.074Z,12.67
2023-05-05T05:18:42.591Z,11.38
2023-05-05T05:21:09.091Z,12.02
2023-05-05T05:23:35.566Z,11.02
2023-05-05T05:26:02.206Z,12.48
2023-05-05T05:28:28.780Z,11.70
2023-05-05T05:30:55.297Z,11.63
2023-05-05T05:33:22.093Z,11.73
2023-05-05T05:35:48.528Z,10.55
2023-05-05T05:38:14.977Z,11.32
2023-05-05T05:40:41.472Z,12.63
2023-05-05T05:43:07.925Z,12.52
2023-05-05T05:45:34.306Z,11.90
2023-05-05T05:48:00.785Z,13.27
2023-05-05T05:50:28.670Z,11.98
2023-05-05T05:52:55.572Z,12.77
2023-05-05T05:55:22.028Z,12.43
2023-05-05T05:57:48.518Z,13.98
2023-05-05T06:00:16.020Z,11.88
2023-05-05T06:02:42.503Z,13.63
2023-05-05T06:05:09.288Z,12.43
2023-05-05T06:07:35.694Z,12.38
2023-05-05T06:10:14.542Z,12.00
2023-05-05T06:12:45.458Z,11.70
2023-05-05T06:15:11.964Z,12.00
2023-05-05T06:17:38.394Z,11.87
2023-05-05T06:20:05.447Z,10.68
2023-05-05T06:22:31.919Z,12.30
2023-05-05T06:24:58.367Z,12.23
2023-05-05T06:27:24.766Z,13.68
2023-05-05T06:29:51.368Z,11.90
2023-05-05T06:32:17.810Z,11.35
2023-05-05T06:34:45.112Z,12.05
2023-05-05T06:37:11.541Z,10.35
2023-05-05T06:39:37.986Z,11.18
2023-05-05T06:42:04.487Z,9.77
2023-05-05T06:44:31.252Z,11.02
2023-05-05T06:46:57.702Z,12.05
2023-05-05T06:49:24.231Z,10.68
2023-05-05T06:51:50.666Z,12.00
2023-05-05T06:54:17.649Z,10.50
2023-05-05T06:56:44.130Z,10.32
2023-05-05T06:59:10.628Z,13.18
2023-05-05T07:01:37.094Z,11.73
2023-05-05T07:04:03.665Z,12.50
2023-05-05T07:06:30.279Z,11.00
2023-05-05T07:08:57.913Z,8.50
2023-05-05T07:11:24.440Z,8.02
2023-05-05T07:13:51.019Z,8.90
2023-05-05T07:16:17.526Z,8.48
2023-05-05T07:18:43.963Z,7.83
2023-05-05T07:21:10.356Z,7.18
2023-05-05T07:23:37.986Z,7.70
2023-05-05T07:26:04.623Z,6.63
2023-05-05T07:28:31.023Z,7.03
2023-05-05T07:30:57.585Z,6.17
2023-05-05T07:33:24.065Z,7.43
2023-05-05T07:35:50.762Z,7.20
2023-05-05T07:38:17.336Z,7.18
2023-05-05T07:40:43.727Z,5.47
2023-05-05T07:43:10.540Z,5.63
2023-05-05T07:45:36.973Z,5.93
2023-05-05T07:48:03.602Z,8.43
2023-05-05T07:50:30.076Z,6.75
2023-05-05T07:53:06.204Z,7.05
2023-05-05T07:55:39.948Z,5.53
2023-05-05T07:58:06.386Z,5.28
2023-05-05T08:00:32.871Z,4.70
2023-05-05T08:02:59.531Z,6.45
2023-05-05T08:05:26.167Z,5.63
2023-05-05T08:07:52.615Z,4.93
2023-05-05T08:10:19.044Z,4.22
2023-05-05T08:12:45.605Z,4.07
2023-05-05T08:15:12.299Z,4.68
2023-05-05T08:17:46.222Z,4.13
2023-05-05T08:20:13.134Z,4.67
2023-05-05T08:22:40.753Z,4.53
2023-05-05T08:25:07.556Z,5.40
2023-05-05T08:27:35.372Z,5.53
2023-05-05T08:30:04.113Z,6.60
2023-05-05T08:32:31.350Z,4.73
2023-05-05T08:34:57.852Z,4.90
2023-05-05T08:37:24.385Z,6.88
2023-05-05T08:39:50.928Z,6.93
2023-05-05T08:42:25.788Z,8.27
2023-05-05T08:44:59.782Z,6.70
2023-05-05T08:47:26.525Z,7.03
2023-05-05T08:49:53.935Z,10.55
2023-05-05T08:52:22.974Z,6.50
2023-05-05T08:54:57.179Z,7.13
2023-05-05T08:57:28.426Z,6.43
2023-05-05T08:59:56.041Z,5.38
2023-05-05T09:02:24.028Z,4.90
2023-05-05T09:04:51.951Z,4.95
2023-05-05T09:07:18.722Z,5.28
2023-05-05T09:09:45.824Z,4.00
2023-05-05T09:12:12.285Z,5.32
2023-05-05T09:14:38.707Z,4.03
2023-05-05T09:17:05.240Z,3.90
2023-05-05T09:19:31.887Z,7.47
2023-05-05T09:21:58.350Z,4.63
2023-05-05T09:24:25.501Z,6.85
2023-05-05T09:26:52.045Z,8.70
2023-05-05T09:29:19.609Z,18.42
2023-05-05T09:31:59.887Z,29.00
2023-05-05T09:34:26.985Z,17.00
2023-05-05T09:36:53.463Z,8.40
2023-05-05T09:39:21.052Z,5.82
2023-05-05T09:41:47.581Z,4.28
2023-05-05T09:44:17.082Z,6.35
2023-05-05T09:46:51.262Z,5.37
2023-05-05T09:49:26.674Z,5.22
2023-05-05T09:51:53.790Z,5.22
2023-05-05T09:54:27.736Z,5.20
2023-05-05T09:56:54.710Z,5.35
2023-05-05T09:59:21.426Z,4.83
2023-05-05T10:01:49.125Z,4.72
2023-05-05T10:04:25.645Z,4.78
2023-05-05T10:06:52.163Z,5.68
2023-05-05T10:09:18.784Z,6.10
2023-05-05T10:11:46.458Z,4.70
2023-05-05T10:14:16.093Z,5.38
2023-05-05T10:16:47.906Z,5.63
2023-05-05T10:19:15.196Z,6.00
2023-05-05T10:21:43.776Z,4.72
2023-05-05T10:24:11.882Z,5.07
2023-05-05T10:26:39.549Z,3.95
2023-05-05T10:29:10.219Z,3.10
2023-05-05T10:31:47.765Z,3.45
2023-05-05T10:34:21.030Z,4.65
2023-05-05T10:36:48.054Z,3.50
2023-05-05T10:39:15.286Z,2.72
2023-05-05T10:41:42.105Z,3.83
2023-05-05T10:44:10.744Z,5.22
2023-05-05T10:46:37.580Z,5.57
2023-05-05T10:49:07.159Z,4.63
2023-05-05T10:51:40.932Z,5.50
2023-05-05T10:54:16.590Z,3.97
2023-05-05T10:56:43.465Z,4.90
2023-05-05T10:59:28.632Z,4.32
2023-05-05T11:01:55.179Z,5.83
2023-05-05T11:04:22.746Z,5.13
2023-05-05T11:07:21.277Z,4.60
2023-05-05T11:10:03.441Z,4.20
2023-05-05T11:12:30.899Z,5.60
2023-05-05T11:15:16.442Z,4.77
2023-05-05T11:17:49.430Z,4.10
2023-05-05T11:20:16.214Z,4.90
2023-05-05T11:23:01.571Z,5.47
2023-05-05T11:25:37.836Z,7.82
2023-05-05T11:28:05.619Z,4.83
2023-05-05T11:30:32.111Z,7.07
2023-05-05T11:33:17.622Z,5.38
2023-05-05T11:35:56.455Z,5.32
2023-05-05T11:38:41.410Z,4.95
2023-05-05T11:41:24.823Z,5.37
2023-05-05T11:44:07.894Z,4.55
2023-05-05T11:46:34.520Z,5.35
2023-05-05T11:49:00.979Z,6.45
2023-05-05T11:51:28.362Z,6.28
2023-05-05T11:53:54.732Z,5.33
2023-05-05T11:56:22.387Z,8.70
2023-05-05T11:58:49.730Z,6.90
2023-05-05T12:01:16.672Z,6.82
2023-05-05T12:03:45.424Z,6.35
2023-05-05T12:06:13.028Z,4.97
2023-05-05T12:08:39.721Z,8.93
2023-05-05T12:11:10.205Z,22.08
2023-05-05T12:13:36.969Z,52.03
2023-05-05T12:16:13.418Z,7.30
2023-05-05T12:18:40.333Z,2.70
2023-05-05T12:21:19.841Z,3.47
2023-05-05T12:23:46.641Z,3.10
2023-05-05T12:26:29.026Z,3.15
2023-05-05T12:28:56.058Z,2.13
2023-05-05T12:31:22.676Z,2.10
2023-05-05T12:33:50.136Z,2.53
2023-05-05T12:36:16.688Z,2.30
2023-05-05T12:38:43.216Z,3.50
2023-05-05T12:41:09.764Z,2.92
2023-05-05T12:43:36.378Z,3.10
2023-05-05T12:46:10.226Z,2.78
2023-05-05T12:48:38.484Z,2.22
2023-05-05T12:51:16.334Z,3.33
2023-05-05T12:53:43.403Z,3.42
2023-05-05T12:56:29.246Z,3.07
2023-05-05T12:58:55.792Z,2.03
2023-05-05T13:01:22.359Z,2.20
2023-05-05T13:04:03.820Z,2.40
2023-05-05T13:06:30.353Z,2.90
2023-05-05T13:08:57.095Z,2.27
2023-05-05T13:11:23.579Z,2.65
2023-05-05T13:13:50.232Z,3.47
2023-05-05T13:16:16.854Z,3.30
2023-05-05T13:18:46.565Z,3.50
2023-05-05T13:21:13.268Z,4.23
2023-05-05T13:23:43.024Z,3.15
2023-05-05T13:26:09.748Z,2.33
2023-05-05T13:28:36.246Z,2.38
2023-05-05T13:31:02.748Z,2.92
2023-05-05T13:33:29.200Z,4.10
2023-05-05T13:35:55.929Z,5.28
2023-05-05T13:38:22.291Z,3.33
2023-05-05T13:40:48.751Z,2.58
2023-05-05T13:43:15.193Z,2.33
2023-05-05T13:45:42.068Z,2.70
2023-05-05T13:48:08.682Z,2.00
2023-05-05T13:50:35.240Z,2.15
2023-05-05T13:53:01.625Z,2.97
2023-05-05T13:55:28.387Z,2.63
2023-05-05T13:57:54.769Z,2.70
2023-05-05T14:00:21.196Z,2.50
2023-05-05T14:02:48.226Z,3.40
2023-05-05T14:05:14.827Z,4.40
2023-05-05T14:07:41.457Z,2.00
2023-05-05T14:10:08.244Z,2.87
2023-05-05T14:12:34.725Z,4.22
2023-05-05T14:15:01.116Z,2.05
2023-05-05T14:17:27.562Z,2.60
2023-05-05T14:19:53.991Z,3.63
2023-05-05T14:22:20.548Z,2.13
2023-05-05T14:24:47.056Z,3.83
2023-05-05T14:27:13.613Z,8.65
2023-05-05T14:29:40.030Z,4.63
2023-05-05T14:32:06.554Z,3.13
2023-05-05T14:34:33.097Z,2.83
2023-05-05T14:36:59.613Z,2.25
2023-05-05T14:39:26.288Z,1.95
2023-05-05T14:41:52.768Z,2.42
2023-05-05T14:44:19.203Z,5.90
2023-05-05T14:46:46.219Z,2.30
2023-05-05T14:49:13.274Z,5.93
2023-05-05T14:51:39.862Z,3.17
2023-05-05T14:54:14.277Z,3.70
2023-05-05T14:56:43.915Z,4.50
2023-05-05T14:59:10.340Z,6.63
2023-05-05T15:01:37.380Z,4.85
2023-05-05T15:04:04.106Z,4.28
2023-05-05T15:06:31.303Z,2.72
2023-05-05T15:08:58.006Z,4.60
2023-05-05T15:11:24.495Z,4.57
2023-05-05T15:13:51.007Z,5.80
2023-05-05T15:16:17.478Z,5.32
2023-05-05T15:18:43.922Z,4.22
2023-05-05T15:21:10.448Z,4.57
2023-05-05T15:23:37.167Z,3.73
2023-05-05T15:26:04.390Z,4.93
2023-05-05T15:28:30.996Z,6.35
2023-05-05T15:30:58.476Z,4.60
2023-05-05T15:33:25.049Z,5.85
2023-05-05T15:35:51.616Z,7.40
2023-05-05T15:38:18.065Z,4.72
2023-05-05T15:40:44.769Z,6.07
2023-05-05T15:43:11.292Z,10.02
2023-05-05T15:45:38.631Z,8.20
2023-05-05T15:48:05.297Z,6.33
2023-05-05T15:50:31.849Z,9.00
2023-05-05T15:52:59.108Z,6.28
2023-05-05T15:55:25.749Z,5.00
2023-05-05T15:57:52.581Z,4.57
2023-05-05T16:00:19.154Z,7.23
2023-05-05T16:02:45.777Z,6.18
2023-05-05T16:05:12.418Z,10.73
2023-05-05T16:07:38.936Z,6.82
2023-05-05T16:10:05.645Z,9.73
2023-05-05T16:12:32.204Z,7.20
2023-05-05T16:14:58.818Z,7.60
2023-05-05T16:17:25.269Z,7.90
2023-05-05T16:19:51.831Z,7.20
2023-05-05T16:22:18.433Z,7.75
2023-05-05T16:24:44.920Z,7.33
2023-05-05T16:27:11.523Z,8.63
2023-05-05T16:29:38.125Z,7.75
2023-05-05T16:32:05.431Z,7.00
2023-05-05T16:34:32.009Z,10.30
2023-05-05T16:36:58.502Z,9.80
2023-05-05T16:39:25.354Z,6.93
2023-05-05T16:41:51.845Z,7.82
2023-05-05T16:44:18.274Z,7.38
2023-05-05T16:46:44.815Z,7.45
2023-05-05T16:49:11.294Z,6.80
2023-05-05T16:51:37.732Z,7.97
2023-05-05T16:54:04.378Z,8.27
2023-05-05T16:56:30.893Z,8.52
2023-05-05T16:58:57.333Z,8.38
2023-05-05T17:01:24.052Z,9.33
2023-05-05T17:03:50.599Z,7.07
2023-05-05T17:06:17.217Z,7.25
2023-05-05T17:08:43.682Z,9.15
2023-05-05T17:11:11.852Z,8.75
2023-05-05T17:13:38.492Z,8.83
2023-05-05T17:16:05.066Z,7.72
2023-05-05T17:18:31.486Z,7.00
2023-05-05T17:20:57.885Z,7.55
2023-05-05T17:23:24.291Z,7.10
2023-05-05T17:25:50.733Z,6.40
2023-05-05T17:28:17.608Z,7.43
2023-05-05T17:30:44.120Z,7.65
2023-05-05T17:33:10.841Z,9.02
2023-05-05T17:35:37.748Z,7.93
2023-05-05T17:38:04.440Z,7.50
2023-05-05T17:40:30.832Z,7.82
2023-05-05T17:42:57.282Z,8.05
2023-05-05T17:45:27.029Z,7.45
2023-05-05T17:47:53.519Z,8.45
2023-05-05T17:50:20.054Z,6.63
2023-05-05T17:52:46.680Z,7.53
2023-05-05T17:55:13.191Z,7.47
2023-05-05T17:57:39.712Z,10.27
2023-05-05T18:00:06.740Z,8.10
2023-05-05T18:02:35.050Z,7.80
2023-05-05T18:05:01.890Z,8.95
2023-05-05T18:07:28.545Z,8.27
2023-05-05T18:09:55.038Z,8.05
2023-05-05T18:12:22.723Z,7.72
2023-05-05T18:14:49.263Z,7.17
2023-05-05T18:17:15.693Z,8.32
2023-05-05T18:19:46.170Z,8.48
2023-05-05T18:22:14.271Z,8.20
2023-05-05T18:24:40.745Z,7.55
2023-05-05T18:27:10.132Z,8.40
2023-05-05T18:29:36.816Z,7.65
2023-05-05T18:32:06.081Z,7.40
2023-05-05T18:34:32.781Z,7.07
2023-05-05T18:37:00.139Z,9.07
2023-05-05T18:39:26.921Z,6.73
2023-05-05T18:41:53.324Z,7.57
2023-05-05T18:44:22.674Z,7.15
2023-05-05T18:46:49.131Z,7.50
2023-05-05T18:49:15.583Z,8.10
2023-05-05T18:51:42.156Z,7.17
2023-05-05T18:54:08.747Z,7.38
2023-05-05T18:56:35.471Z,6.68
2023-05-05T18:59:02.001Z,7.18
2023-05-05T19:01:28.409Z,7.80
2023-05-05T19:03:54.890Z,7.20
2023-05-05T19:06:21.331Z,7.65
2023-05-05T19:08:47.838Z,7.85
2023-05-05T19:11:15.218Z,7.45
2023-05-05T19:13:41.916Z,7.72
2023-05-05T19:16:08.466Z,7.23
2023-05-05T19:18:34.943Z,7.88
2023-05-05T19:21:01.518Z,7.07
2023-05-05T19:23:27.935Z,8.27
2023-05-05T19:25:54.607Z,9.20
2023-05-05T19:28:21.471Z,7.83
2023-05-05T19:30:48.736Z,9.30
2023-05-05T19:33:15.898Z,8.52
2023-05-05T19:35:42.464Z,8.27
2023-05-05T19:38:10.386Z,7.63
2023-05-05T19:40:39.874Z,7.97
2023-05-05T19:43:06.723Z,9.13
2023-05-05T19:45:36.367Z,7.95
2023-05-05T19:48:02.996Z,8.45
2023-05-05T19:50:30.628Z,9.07
2023-05-05T19:52:57.732Z,8.63
2023-05-05T19:55:24.514Z,8.27
2023-05-05T19:57:51.130Z,8.48
2023-05-05T20:00:18.284Z,8.55
2023-05-05T20:02:45.302Z,8.98
2023-05-05T20:05:14.123Z,8.40
2023-05-05T20:07:42.001Z,8.35
2023-05-05T20:10:09.468Z,8.77
2023-05-05T20:12:36.593Z,9.35
2023-05-05T20:15:03.254Z,8.25
2023-05-05T20:17:29.691Z,8.00
2023-05-05T20:19:57.736Z,8.82
2023-05-05T20:22:26.644Z,8.00
2023-05-05T20:24:53.510Z,8.35
2023-05-05T20:27:21.077Z,8.77
2023-05-05T20:29:48.210Z,8.53
2023-05-05T20:32:14.921Z,7.90
2023-05-05T20:34:41.388Z,8.23
2023-05-05T20:37:07.943Z,7.93
2023-05-05T20:39:34.464Z,8.57
2023-05-05T20:42:01.219Z,7.90
2023-05-05T20:44:27.647Z,8.77
2023-05-05T20:46:54.246Z,9.98
2023-05-05T20:49:20.777Z,9.55
2023-05-05T20:51:47.185Z,9.40
2023-05-05T20:54:13.660Z,8.20
2023-05-05T20:56:40.093Z,8.48
2023-05-05T20:59:06.515Z,9.32
2023-05-05T21:01:33.033Z,8.45
2023-05-05T21:04:00.453Z,9.48
2023-05-05T21:06:26.909Z,8.73
2023-05-05T21:08:53.398Z,9.32
2023-05-05T21:11:19.910Z,9.88
2023-05-05T21:13:46.397Z,9.38
2023-05-05T21:16:12.827Z,9.73
2023-05-05T21:18:39.324Z,10.70
2023-05-05T21:21:06.098Z,9.27
2023-05-05T21:23:32.497Z,11.15
2023-05-05T21:25:59.268Z,9.55
2023-05-05T21:28:25.787Z,10.98
2023-05-05T21:31:10.383Z,10.50
2023-05-05T21:33:38.700Z,10.32
2023-05-05T21:36:06.058Z,11.05
2023-05-05T21:38:32.605Z,10.50
2023-05-05T21:40:59.214Z,12.20
2023-05-05T21:43:25.972Z,10.63
2023-05-05T21:45:59.341Z,10.65
2023-05-05T21:48:25.711Z,11.45
2023-05-05T21:50:52.606Z,11.63
2023-05-05T21:53:19.009Z,12.13
2023-05-05T21:55:45.470Z,10.63
2023-05-05T21:58:11.931Z,12.23
2023-05-05T22:00:38.816Z,12.23
2023-05-05T22:03:05.609Z,12.05
2023-05-05T22:05:32.088Z,12.13
2023-05-05T22:07:58.510Z,12.93
2023-05-05T22:10:25.121Z,12.25
2023-05-05T22:12:52.036Z,12.68
2023-05-05T22:15:20.027Z,12.43
2023-05-05T22:17:46.540Z,13.13
2023-05-05T22:20:13.114Z,12.53
2023-05-05T22:22:39.542Z,12.90
2023-05-05T22:25:06.791Z,13.07
2023-05-05T22:27:33.257Z,12.27
2023-05-05T22:29:59.871Z,13.07
2023-05-05T22:32:26.319Z,11.83
2023-05-05T22:34:52.914Z,12.57
2023-05-05T22:37:19.369Z,13.85
2023-05-05T22:39:45.818Z,14.15
2023-05-05T22:42:12.344Z,14.05
2023-05-05T22:44:38.804Z,13.80
2023-05-05T22:47:06.147Z,13.68
2023-05-05T22:49:32.710Z,14.63
2023-05-05T22:51:59.262Z,14.80
2023-05-05T22:54:25.859Z,14.32
2023-05-05T22:56:52.375Z,13.97
2023-05-05T22:59:18.827Z,15.02
2023-05-05T23:01:45.311Z,15.20
2023-05-05T23:04:11.887Z,15.57
2023-05-05T23:06:40.248Z,15.63
2023-05-05T23:09:06.862Z,14.47
2023-05-05T23:11:33.324Z,16.88
2023-05-05T23:13:59.973Z,15.10
2023-05-05T23:16:26.550Z,13.88
2023-05-05T23:18:53.053Z,14.45
2023-05-05T23:21:19.482Z,15.83
2023-05-05T23:23:46.160Z,16.13
2023-05-05T23:26:13.289Z,15.38
2023-05-05T23:28:39.726Z,14.98
2023-05-05T23:31:06.358Z,16.05
2023-05-05T23:33:32.883Z,15.90
2023-05-05T23:35:59.419Z,14.55
2023-05-05T23:38:25.941Z,15.18
2023-05-05T23:40:52.885Z,16.38
2023-05-05T23:43:19.316Z,15.23
2023-05-05T23:45:45.872Z,15.40
2023-05-05T23:48:12.308Z,14.90
2023-05-05T23:50:38.759Z,16.58
2023-05-05T23:53:05.369Z,15.38
2023-05-05T23:55:31.845Z,14.77
2023-05-05T23:57:58.361Z,14.53
